sensor_id;sensor_type;location;lat;lon;timestamp;pressure;altitude;pressure_sealevel;temperature
69785;BMP280;14177;51.520;6.764;2022-12-18T00:01:22;102737.72;;;-7.20
69785;BMP280;14177;51.520;6.764;2022-12-18T00:03:50;102745.19;;;-7.21
69785;BMP280;14177;51.520;6.764;2022-12-18T00:06:18;102750.91;;;-7.24
69785;BMP280;14177;51.520;6.764;2022-12-18T00:08:45;102755.72;;;-7.27
69785;BMP280;14177;51.520;6.764;2022-12-18T00:11:15;102760.78;;;-7.27
69785;BMP280;14177;51.520;6.764;2022-12-18T00:13:42;102748.06;;;-7.28
69785;BMP280;14177;51.520;6.764;2022-12-18T00:16:12;102752.25;;;-7.29
69785;BMP280;14177;51.520;6.764;2022-12-18T00:18:40;102745.44;;;-7.30
69785;BMP280;14177;51.520;6.764;2022-12-18T00:21:10;102734.22;;;-7.33
69785;BMP280;14177;51.520;6.764;2022-12-18T00:23:37;102729.09;;;-7.35
69785;BMP280;14177;51.520;6.764;2022-12-18T00:26:11;102728.09;;;-7.37
69785;BMP280;14177;51.520;6.764;2022-12-18T00:28:39;102713.72;;;-7.38
69785;BMP280;14177;51.520;6.764;2022-12-18T00:31:09;102726.78;;;-7.43
69785;BMP280;14177;51.520;6.764;2022-12-18T00:33:37;102728.22;;;-7.47
69785;BMP280;14177;51.520;6.764;2022-12-18T00:36:13;102741.59;;;-7.48
69785;BMP280;14177;51.520;6.764;2022-12-18T00:38:41;102742.25;;;-7.50
69785;BMP280;14177;51.520;6.764;2022-12-18T00:41:10;102738.88;;;-7.51
69785;BMP280;14177;51.520;6.764;2022-12-18T00:43:37;102746.31;;;-7.52
69785;BMP280;14177;51.520;6.764;2022-12-18T00:46:05;102753.03;;;-7.53
69785;BMP280;14177;51.520;6.764;2022-12-18T00:48:32;102752.03;;;-7.55
69785;BMP280;14177;51.520;6.764;2022-12-18T00:50:59;102754.44;;;-7.56
69785;BMP280;14177;51.520;6.764;2022-12-18T00:53:26;102745.09;;;-7.57
69785;BMP280;14177;51.520;6.764;2022-12-18T00:55:54;102746.78;;;-7.58
69785;BMP280;14177;51.520;6.764;2022-12-18T00:58:21;102740.81;;;-7.58
69785;BMP280;14177;51.520;6.764;2022-12-18T01:00:48;102738.22;;;-7.60
69785;BMP280;14177;51.520;6.764;2022-12-18T01:03:15;102750.06;;;-7.59
69785;BMP280;14177;51.520;6.764;2022-12-18T01:05:43;102745.66;;;-7.61
69785;BMP280;14177;51.520;6.764;2022-12-18T01:08:10;102748.94;;;-7.62
69785;BMP280;14177;51.520;6.764;2022-12-18T01:10:40;102743.81;;;-7.64
69785;BMP280;14177;51.520;6.764;2022-12-18T01:13:07;102740.50;;;-7.63
69785;BMP280;14177;51.520;6.764;2022-12-18T01:15:34;102735.47;;;-7.63
69785;BMP280;14177;51.520;6.764;2022-12-18T01:18:01;102743.03;;;-7.63
69785;BMP280;14177;51.520;6.764;2022-12-18T01:20:28;102738.75;;;-7.64
69785;BMP280;14177;51.520;6.764;2022-12-18T01:22:55;102739.53;;;-7.65
69785;BMP280;14177;51.520;6.764;2022-12-18T01:25:24;102732.63;;;-7.67
69785;BMP280;14177;51.520;6.764;2022-12-18T01:27:51;102728.22;;;-7.70
69785;BMP280;14177;51.520;6.764;2022-12-18T01:30:18;102741.50;;;-7.72
69785;BMP280;14177;51.520;6.764;2022-12-18T01:32:45;102741.38;;;-7.74
69785;BMP280;14177;51.520;6.764;2022-12-18T01:35:12;102735.34;;;-7.76
69785;BMP280;14177;51.520;6.764;2022-12-18T01:37:39;102730.06;;;-7.79
69785;BMP280;14177;51.520;6.764;2022-12-18T01:40:06;102731.59;;;-7.81
69785;BMP280;14177;51.520;6.764;2022-12-18T01:42:33;102738.31;;;-7.81
69785;BMP280;14177;51.520;6.764;2022-12-18T01:47:48;102724.59;;;-7.85
69785;BMP280;14177;51.520;6.764;2022-12-18T01:50:18;102718.69;;;-7.85
69785;BMP280;14177;51.520;6.764;2022-12-18T01:53:01;102716.78;;;-7.88
69785;BMP280;14177;51.520;6.764;2022-12-18T01:55:32;102734.34;;;-7.89
69785;BMP280;14177;51.520;6.764;2022-12-18T01:58:01;102734.22;;;-7.91
69785;BMP280;14177;51.520;6.764;2022-12-18T02:00:28;102736.75;;;-7.91
69785;BMP280;14177;51.520;6.764;2022-12-18T02:02:56;102733.25;;;-7.93
69785;BMP280;14177;51.520;6.764;2022-12-18T02:05:31;102730.72;;;-7.93
69785;BMP280;14177;51.520;6.764;2022-12-18T02:08:10;102729.63;;;-7.96
69785;BMP280;14177;51.520;6.764;2022-12-18T02:10:51;102732.03;;;-7.98
69785;BMP280;14177;51.520;6.764;2022-12-18T02:13:46;102735.31;;;-7.99
69785;BMP280;14177;51.520;6.764;2022-12-18T02:16:25;102745.41;;;-7.99
69785;BMP280;14177;51.520;6.764;2022-12-18T02:18:58;102738.41;;;-8.03
69785;BMP280;14177;51.520;6.764;2022-12-18T02:21:35;102733.47;;;-8.01
69785;BMP280;14177;51.520;6.764;2022-12-18T02:27:05;102723.47;;;-8.00
69785;BMP280;14177;51.520;6.764;2022-12-18T02:29:38;102716.66;;;-8.01
69785;BMP280;14177;51.520;6.764;2022-12-18T02:32:09;102714.94;;;-8.02
69785;BMP280;14177;51.520;6.764;2022-12-18T02:34:41;102718.22;;;-8.03
69785;BMP280;14177;51.520;6.764;2022-12-18T02:37:15;102727.31;;;-8.05
69785;BMP280;14177;51.520;6.764;2022-12-18T02:39:44;102731.25;;;-8.08
69785;BMP280;14177;51.520;6.764;2022-12-18T02:42:14;102735.44;;;-8.09
69785;BMP280;14177;51.520;6.764;2022-12-18T02:44:43;102725.22;;;-8.10
69785;BMP280;14177;51.520;6.764;2022-12-18T02:47:13;102725.97;;;-8.11
69785;BMP280;14177;51.520;6.764;2022-12-18T03:01:03;102717.00;;;-8.19
69785;BMP280;14177;51.520;6.764;2022-12-18T03:03:38;102728.75;;;-8.20
69785;BMP280;14177;51.520;6.764;2022-12-18T03:06:14;102735.44;;;-8.20
69785;BMP280;14177;51.520;6.764;2022-12-18T03:08:47;102733.66;;;-8.21
69785;BMP280;14177;51.520;6.764;2022-12-18T03:11:16;102727.00;;;-8.21
69785;BMP280;14177;51.520;6.764;2022-12-18T03:14:06;102709.22;;;-8.22
69785;BMP280;14177;51.520;6.764;2022-12-18T03:16:34;102701.78;;;-8.21
69785;BMP280;14177;51.520;6.764;2022-12-18T03:19:08;102700.88;;;-8.21
69785;BMP280;14177;51.520;6.764;2022-12-18T03:21:40;102700.78;;;-8.23
69785;BMP280;14177;51.520;6.764;2022-12-18T03:24:09;102708.22;;;-8.24
69785;BMP280;14177;51.520;6.764;2022-12-18T03:26:41;102703.94;;;-8.25
69785;BMP280;14177;51.520;6.764;2022-12-18T03:29:21;102714.03;;;-8.25
69785;BMP280;14177;51.520;6.764;2022-12-18T03:31:53;102701.31;;;-8.27
69785;BMP280;14177;51.520;6.764;2022-12-18T03:34:29;102704.72;;;-8.26
69785;BMP280;14177;51.520;6.764;2022-12-18T03:37:01;102705.38;;;-8.28
69785;BMP280;14177;51.520;6.764;2022-12-18T03:39:30;102700.34;;;-8.28
69785;BMP280;14177;51.520;6.764;2022-12-18T03:42:05;102697.81;;;-8.28
69785;BMP280;14177;51.520;6.764;2022-12-18T03:44:57;102706.25;;;-8.28
69785;BMP280;14177;51.520;6.764;2022-12-18T03:53:05;102703.25;;;-8.34
69785;BMP280;14177;51.520;6.764;2022-12-18T03:55:34;102700.75;;;-8.34
69785;BMP280;14177;51.520;6.764;2022-12-18T03:58:06;102694.84;;;-8.34
69785;BMP280;14177;51.520;6.764;2022-12-18T04:00:54;102703.16;;;-8.35
69785;BMP280;14177;51.520;6.764;2022-12-18T04:03:23;102699.66;;;-8.37
69785;BMP280;14177;51.520;6.764;2022-12-18T04:05:54;102682.78;;;-8.38
69785;BMP280;14177;51.520;6.764;2022-12-18T04:08:23;102694.50;;;-8.39
69785;BMP280;14177;51.520;6.764;2022-12-18T04:10:59;102691.09;;;-8.39
69785;BMP280;14177;51.520;6.764;2022-12-18T04:13:34;102692.75;;;-8.40
69785;BMP280;14177;51.520;6.764;2022-12-18T04:16:05;102694.38;;;-8.40
69785;BMP280;14177;51.520;6.764;2022-12-18T04:18:32;102698.44;;;-8.42
69785;BMP280;14177;51.520;6.764;2022-12-18T04:21:00;102694.16;;;-8.43
69785;BMP280;14177;51.520;6.764;2022-12-18T04:23:35;102696.69;;;-8.43
69785;BMP280;14177;51.520;6.764;2022-12-18T04:26:02;102696.69;;;-8.43
69785;BMP280;14177;51.520;6.764;2022-12-18T04:28:48;102692.41;;;-8.44
69785;BMP280;14177;51.520;6.764;2022-12-18T04:31:15;102685.50;;;-8.47
69785;BMP280;14177;51.520;6.764;2022-12-18T04:33:48;102688.13;;;-8.45
69785;BMP280;14177;51.520;6.764;2022-12-18T04:36:16;102679.56;;;-8.47
69785;BMP280;14177;51.520;6.764;2022-12-18T04:38:44;102676.28;;;-8.46
69785;BMP280;14177;51.520;6.764;2022-12-18T04:41:14;102673.75;;;-8.46
69785;BMP280;14177;51.520;6.764;2022-12-18T04:43:43;102684.72;;;-8.46
69785;BMP280;14177;51.520;6.764;2022-12-18T04:46:10;102679.78;;;-8.44
69785;BMP280;14177;51.520;6.764;2022-12-18T04:48:37;102670.47;;;-8.45
69785;BMP280;14177;51.520;6.764;2022-12-18T04:51:05;102672.22;;;-8.44
69785;BMP280;14177;51.520;6.764;2022-12-18T04:53:32;102678.03;;;-8.45
69785;BMP280;14177;51.520;6.764;2022-12-18T04:58:30;102677.81;;;-8.48
69785;BMP280;14177;51.520;6.764;2022-12-18T05:00:57;102673.53;;;-8.49
69785;BMP280;14177;51.520;6.764;2022-12-18T05:03:24;102671.78;;;-8.50
69785;BMP280;14177;51.520;6.764;2022-12-18T05:05:51;102671.78;;;-8.50
69785;BMP280;14177;51.520;6.764;2022-12-18T05:08:18;102652.38;;;-8.51
69785;BMP280;14177;51.520;6.764;2022-12-18T05:10:45;102653.13;;;-8.52
69785;BMP280;14177;51.520;6.764;2022-12-18T05:13:12;102646.47;;;-8.52
69785;BMP280;14177;51.520;6.764;2022-12-18T05:15:39;102651.50;;;-8.52
69785;BMP280;14177;51.520;6.764;2022-12-18T05:18:06;102657.41;;;-8.51
69785;BMP280;14177;51.520;6.764;2022-12-18T05:20:33;102669.91;;;-8.53
69785;BMP280;14177;51.520;6.764;2022-12-18T05:23:00;102669.78;;;-8.54
69785;BMP280;14177;51.520;6.764;2022-12-18T05:25:27;102673.97;;;-8.55
69785;BMP280;14177;51.520;6.764;2022-12-18T05:27:54;102668.03;;;-8.55
69785;BMP280;14177;51.520;6.764;2022-12-18T05:30:20;102661.13;;;-8.58
69785;BMP280;14177;51.520;6.764;2022-12-18T05:32:47;102669.47;;;-8.59
69785;BMP280;14177;51.520;6.764;2022-12-18T05:35:14;102676.91;;;-8.60
69785;BMP280;14177;51.520;6.764;2022-12-18T05:37:41;102672.75;;;-8.60
69785;BMP280;14177;51.520;6.764;2022-12-18T05:40:09;102678.56;;;-8.61
69785;BMP280;14177;51.520;6.764;2022-12-18T05:42:36;102674.38;;;-8.60
69785;BMP280;14177;51.520;6.764;2022-12-18T05:45:04;102680.19;;;-8.61
69785;BMP280;14177;51.520;6.764;2022-12-18T05:47:32;102680.94;;;-8.62
69785;BMP280;14177;51.520;6.764;2022-12-18T05:49:59;102682.59;;;-8.63
69785;BMP280;14177;51.520;6.764;2022-12-18T05:52:25;102693.53;;;-8.62
69785;BMP280;14177;51.520;6.764;2022-12-18T05:54:52;102698.59;;;-8.62
69785;BMP280;14177;51.520;6.764;2022-12-18T05:57:19;102703.75;;;-8.61
69785;BMP280;14177;51.520;6.764;2022-12-18T05:59:46;102708.03;;;-8.60
69785;BMP280;14177;51.520;6.764;2022-12-18T06:02:13;102707.13;;;-8.60
69785;BMP280;14177;51.520;6.764;2022-12-18T06:04:40;102713.94;;;-8.59
69785;BMP280;14177;51.520;6.764;2022-12-18T06:07:07;102718.97;;;-8.59
69785;BMP280;14177;51.520;6.764;2022-12-18T06:09:33;102721.41;;;-8.61
69785;BMP280;14177;51.520;6.764;2022-12-18T06:12:00;102728.06;;;-8.61
69785;BMP280;14177;51.520;6.764;2022-12-18T06:14:27;102732.34;;;-8.60
69785;BMP280;14177;51.520;6.764;2022-12-18T06:16:54;102737.38;;;-8.60
69785;BMP280;14177;51.520;6.764;2022-12-18T06:19:21;102729.81;;;-8.60
69785;BMP280;14177;51.520;6.764;2022-12-18T06:21:48;102723.38;;;-8.57
69785;BMP280;14177;51.520;6.764;2022-12-18T06:24:15;102719.88;;;-8.59
69785;BMP280;14177;51.520;6.764;2022-12-18T06:26:42;102709.78;;;-8.59
69785;BMP280;14177;51.520;6.764;2022-12-18T06:29:09;102712.19;;;-8.60
69785;BMP280;14177;51.520;6.764;2022-12-18T06:31:36;102721.41;;;-8.61
69785;BMP280;14177;51.520;6.764;2022-12-18T06:34:03;102715.47;;;-8.61
69785;BMP280;14177;51.520;6.764;2022-12-18T06:36:31;102709.56;;;-8.62
69785;BMP280;14177;51.520;6.764;2022-12-18T06:38:58;102707.81;;;-8.63
69785;BMP280;14177;51.520;6.764;2022-12-18T06:41:25;102698.47;;;-8.64
69785;BMP280;14177;51.520;6.764;2022-12-18T06:43:52;102696.81;;;-8.63
69785;BMP280;14177;51.520;6.764;2022-12-18T06:46:25;102693.31;;;-8.65
69785;BMP280;14177;51.520;6.764;2022-12-18T06:48:51;102695.06;;;-8.64
69785;BMP280;14177;51.520;6.764;2022-12-18T06:51:21;102687.50;;;-8.64
69785;BMP280;14177;51.520;6.764;2022-12-18T06:53:49;102678.94;;;-8.66
69785;BMP280;14177;51.520;6.764;2022-12-18T06:56:17;102679.94;;;-8.64
69785;BMP280;14177;51.520;6.764;2022-12-18T06:58:43;102673.06;;;-8.67
69785;BMP280;14177;51.520;6.764;2022-12-18T07:01:11;102665.50;;;-8.67
69785;BMP280;14177;51.520;6.764;2022-12-18T07:03:40;102662.84;;;-8.68
69785;BMP280;14177;51.520;6.764;2022-12-18T07:06:16;102668.66;;;-8.69
69785;BMP280;14177;51.520;6.764;2022-12-18T07:08:43;102661.09;;;-8.69
69785;BMP280;14177;51.520;6.764;2022-12-18T07:11:11;102660.22;;;-8.70
69785;BMP280;14177;51.520;6.764;2022-12-18T07:13:38;102667.66;;;-8.71
69785;BMP280;14177;51.520;6.764;2022-12-18T07:16:14;102677.88;;;-8.70
69785;BMP280;14177;51.520;6.764;2022-12-18T07:18:51;102676.22;;;-8.69
69785;BMP280;14177;51.520;6.764;2022-12-18T07:21:20;102683.91;;;-8.68
69785;BMP280;14177;51.520;6.764;2022-12-18T07:23:47;102671.38;;;-8.66
69785;BMP280;14177;51.520;6.764;2022-12-18T07:26:18;102669.09;;;-8.63
69785;BMP280;14177;51.520;6.764;2022-12-18T07:28:45;102665.81;;;-8.62
69785;BMP280;14177;51.520;6.764;2022-12-18T07:31:15;102661.78;;;-8.60
69785;BMP280;14177;51.520;6.764;2022-12-18T07:33:43;102658.47;;;-8.59
69785;BMP280;14177;51.520;6.764;2022-12-18T07:36:13;102653.44;;;-8.59
69785;BMP280;14177;51.520;6.764;2022-12-18T07:38:41;102652.59;;;-8.60
69785;BMP280;14177;51.520;6.764;2022-12-18T07:41:10;102656.19;;;-8.56
69785;BMP280;14177;51.520;6.764;2022-12-18T07:43:38;102658.72;;;-8.56
69785;BMP280;14177;51.520;6.764;2022-12-18T07:46:08;102670.78;;;-8.52
69785;BMP280;14177;51.520;6.764;2022-12-18T07:48:35;102665.75;;;-8.52
69785;BMP280;14177;51.520;6.764;2022-12-18T07:51:04;102670.00;;;-8.51
69785;BMP280;14177;51.520;6.764;2022-12-18T07:53:32;102676.94;;;-8.49
69785;BMP280;14177;51.520;6.764;2022-12-18T07:56:03;102667.84;;;-8.47
69785;BMP280;14177;51.520;6.764;2022-12-18T07:58:51;102667.31;;;-8.43
69785;BMP280;14177;51.520;6.764;2022-12-18T08:01:18;102665.78;;;-8.41
69785;BMP280;14177;51.520;6.764;2022-12-18T08:03:47;102657.56;;;-8.38
69785;BMP280;14177;51.520;6.764;2022-12-18T08:06:14;102650.22;;;-8.35
69785;BMP280;14177;51.520;6.764;2022-12-18T08:08:41;102653.94;;;-8.30
69785;BMP280;14177;51.520;6.764;2022-12-18T08:11:09;102641.66;;;-8.26
69785;BMP280;14177;51.520;6.764;2022-12-18T08:13:36;102635.31;;;-8.21
69785;BMP280;14177;51.520;6.764;2022-12-18T08:16:06;102638.25;;;-8.15
69785;BMP280;14177;51.520;6.764;2022-12-18T08:18:35;102631.88;;;-8.10
69785;BMP280;14177;51.520;6.764;2022-12-18T08:23:37;102624.50;;;-7.96
69785;BMP280;14177;51.520;6.764;2022-12-18T08:26:10;102623.63;;;-7.85
69785;BMP280;14177;51.520;6.764;2022-12-18T08:28:38;102603.31;;;-7.75
69785;BMP280;14177;51.520;6.764;2022-12-18T08:31:06;102616.81;;;-7.63
69785;BMP280;14177;51.520;6.764;2022-12-18T08:33:34;102602.31;;;-7.54
69785;BMP280;14177;51.520;6.764;2022-12-18T08:36:02;102592.06;;;-7.44
69785;BMP280;14177;51.520;6.764;2022-12-18T08:38:31;102593.69;;;-7.33
69785;BMP280;14177;51.520;6.764;2022-12-18T08:41:00;102596.16;;;-7.21
69785;BMP280;14177;51.520;6.764;2022-12-18T08:43:27;102601.06;;;-7.12
69785;BMP280;14177;51.520;6.764;2022-12-18T08:46:13;102597.81;;;-6.98
69785;BMP280;14177;51.520;6.764;2022-12-18T08:48:40;102607.06;;;-6.85
69785;BMP280;14177;51.520;6.764;2022-12-18T08:51:08;102603.91;;;-6.70
69785;BMP280;14177;51.520;6.764;2022-12-18T08:53:36;102605.19;;;-6.50
69785;BMP280;14177;51.520;6.764;2022-12-18T08:56:05;102605.53;;;-6.33
69785;BMP280;14177;51.520;6.764;2022-12-18T08:58:32;102602.41;;;-6.16
69785;BMP280;14177;51.520;6.764;2022-12-18T09:01:00;102601.94;;;-5.97
69785;BMP280;14177;51.520;6.764;2022-12-18T09:03:28;102595.28;;;-5.83
69785;BMP280;14177;51.520;6.764;2022-12-18T09:05:57;102586.97;;;-5.67
69785;BMP280;14177;51.520;6.764;2022-12-18T09:08:25;102582.13;;;-5.50
69785;BMP280;14177;51.520;6.764;2022-12-18T09:10:52;102573.13;;;-5.32
69785;BMP280;14177;51.520;6.764;2022-12-18T09:13:19;102566.72;;;-5.12
69785;BMP280;14177;51.520;6.764;2022-12-18T09:15:49;102574.88;;;-4.89
69785;BMP280;14177;51.520;6.764;2022-12-18T09:18:17;102576.41;;;-4.49
69785;BMP280;14177;51.520;6.764;2022-12-18T09:20:45;102580.31;;;-3.95
69785;BMP280;14177;51.520;6.764;2022-12-18T09:23:12;102564.91;;;-3.37
69785;BMP280;14177;51.520;6.764;2022-12-18T09:25:39;102569.03;;;-2.74
69785;BMP280;14177;51.520;6.764;2022-12-18T09:28:15;102561.97;;;-1.76
69785;BMP280;14177;51.520;6.764;2022-12-18T09:30:48;102553.06;;;-0.91
69785;BMP280;14177;51.520;6.764;2022-12-18T09:33:16;102556.94;;;-0.41
69785;BMP280;14177;51.520;6.764;2022-12-18T09:35:44;102552.38;;;-0.07
69785;BMP280;14177;51.520;6.764;2022-12-18T09:38:16;102557.13;;;0.06
69785;BMP280;14177;51.520;6.764;2022-12-18T09:40:47;102550.41;;;0.30
69785;BMP280;14177;51.520;6.764;2022-12-18T09:43:51;102550.88;;;0.42
69785;BMP280;14177;51.520;6.764;2022-12-18T09:46:27;102548.41;;;0.45
69785;BMP280;14177;51.520;6.764;2022-12-18T09:48:59;102538.78;;;0.38
69785;BMP280;14177;51.520;6.764;2022-12-18T09:51:33;102526.34;;;0.25
69785;BMP280;14177;51.520;6.764;2022-12-18T09:54:11;102527.16;;;0.02
69785;BMP280;14177;51.520;6.764;2022-12-18T09:56:41;102526.22;;;-0.22
69785;BMP280;14177;51.520;6.764;2022-12-18T09:59:37;102512.69;;;-0.40
69785;BMP280;14177;51.520;6.764;2022-12-18T10:02:24;102538.00;;;-0.46
69785;BMP280;14177;51.520;6.764;2022-12-18T10:05:04;102528.16;;;-0.57
69785;BMP280;14177;51.520;6.764;2022-12-18T10:08:00;102520.94;;;-0.67
69785;BMP280;14177;51.520;6.764;2022-12-18T10:10:37;102518.41;;;-0.66
69785;BMP280;14177;51.520;6.764;2022-12-18T10:13:16;102505.06;;;-0.60
69785;BMP280;14177;51.520;6.764;2022-12-18T10:18:34;102508.28;;;-0.44
69785;BMP280;14177;51.520;6.764;2022-12-18T10:21:10;102505.97;;;-0.38
69785;BMP280;14177;51.520;6.764;2022-12-18T10:23:55;102493.44;;;-0.32
69785;BMP280;14177;51.520;6.764;2022-12-18T10:26:24;102492.06;;;-0.24
69785;BMP280;14177;51.520;6.764;2022-12-18T10:28:53;102476.22;;;-0.15
69785;BMP280;14177;51.520;6.764;2022-12-18T10:31:23;102468.75;;;-0.11
69785;BMP280;14177;51.520;6.764;2022-12-18T10:33:53;102470.03;;;0.00
69785;BMP280;14177;51.520;6.764;2022-12-18T10:36:23;102473.91;;;0.12
69785;BMP280;14177;51.520;6.764;2022-12-18T10:38:51;102466.56;;;0.21
69785;BMP280;14177;51.520;6.764;2022-12-18T10:43:47;102476.00;;;0.46
69785;BMP280;14177;51.520;6.764;2022-12-18T10:46:17;102464.28;;;0.52
69785;BMP280;14177;51.520;6.764;2022-12-18T10:54:01;102450.38;;;0.68
69785;BMP280;14177;51.520;6.764;2022-12-18T10:56:31;102442.97;;;0.77
69785;BMP280;14177;51.520;6.764;2022-12-18T10:59:03;102448.31;;;0.83
69785;BMP280;14177;51.520;6.764;2022-12-18T11:01:51;102440.69;;;0.84
69785;BMP280;14177;51.520;6.764;2022-12-18T11:04:27;102427.13;;;0.87
69785;BMP280;14177;51.520;6.764;2022-12-18T11:07:08;102417.72;;;0.86
69785;BMP280;14177;51.520;6.764;2022-12-18T11:09:39;102417.72;;;0.86
69785;BMP280;14177;51.520;6.764;2022-12-18T11:12:18;102419.44;;;0.87
69785;BMP280;14177;51.520;6.764;2022-12-18T11:14:50;102424.56;;;0.87
69785;BMP280;14177;51.520;6.764;2022-12-18T11:17:20;102415.44;;;0.93
69785;BMP280;14177;51.520;6.764;2022-12-18T11:19:54;102414.75;;;0.99
69785;BMP280;14177;51.520;6.764;2022-12-18T11:22:32;102404.81;;;1.08
69785;BMP280;14177;51.520;6.764;2022-12-18T11:25:26;102402.78;;;1.24
69785;BMP280;14177;51.520;6.764;2022-12-18T11:30:50;102397.06;;;1.59
69785;BMP280;14177;51.520;6.764;2022-12-18T11:33:36;102377.78;;;1.71
69785;BMP280;14177;51.520;6.764;2022-12-18T11:36:08;102381.56;;;1.84
69785;BMP280;14177;51.520;6.764;2022-12-18T11:38:40;102379.34;;;1.94
69785;BMP280;14177;51.520;6.764;2022-12-18T11:43:55;102354.97;;;2.08
69785;BMP280;14177;51.520;6.764;2022-12-18T11:46:43;102356.72;;;2.09
69785;BMP280;14177;51.520;6.764;2022-12-18T11:49:17;102356.81;;;2.14
69785;BMP280;14177;51.520;6.764;2022-12-18T11:51:55;102356.06;;;2.16
69785;BMP280;14177;51.520;6.764;2022-12-18T11:54:26;102352.66;;;2.17
69785;BMP280;14177;51.520;6.764;2022-12-18T11:56:55;102350.97;;;2.19
69785;BMP280;14177;51.520;6.764;2022-12-18T12:07:48;102349.31;;;2.52
69785;BMP280;14177;51.520;6.764;2022-12-18T12:10:38;102346.84;;;2.55
69785;BMP280;14177;51.520;6.764;2022-12-18T12:13:29;102350.31;;;2.57
69785;BMP280;14177;51.520;6.764;2022-12-18T12:16:15;102345.16;;;2.57
69785;BMP280;14177;51.520;6.764;2022-12-18T12:19:41;102347.00;;;2.61
69785;BMP280;14177;51.520;6.764;2022-12-18T12:27:58;102306.84;;;2.63
69785;BMP280;14177;51.520;6.764;2022-12-18T12:33:47;102323.97;;;2.64
69785;BMP280;14177;51.520;6.764;2022-12-18T12:36:51;102321.44;;;2.65
69785;BMP280;14177;51.520;6.764;2022-12-18T12:39:23;102309.44;;;2.64
69785;BMP280;14177;51.520;6.764;2022-12-18T12:41:54;102299.13;;;2.63
69785;BMP280;14177;51.520;6.764;2022-12-18T12:44:49;102302.56;;;2.63
69785;BMP280;14177;51.520;6.764;2022-12-18T12:47:30;102292.28;;;2.63
69785;BMP280;14177;51.520;6.764;2022-12-18T12:50:01;102288.03;;;2.64
69785;BMP280;14177;51.520;6.764;2022-12-18T12:52:49;102290.56;;;2.62
69785;BMP280;14177;51.520;6.764;2022-12-18T12:55:21;102296.56;;;2.63
69785;BMP280;14177;51.520;6.764;2022-12-18T13:00:54;102296.34;;;2.54
69785;BMP280;14177;51.520;6.764;2022-12-18T13:06:56;102296.34;;;2.54
69785;BMP280;14177;51.520;6.764;2022-12-18T13:08:58;102300.66;;;2.56
69785;BMP280;14177;51.520;6.764;2022-12-18T13:11:34;102291.13;;;2.51
69785;BMP280;14177;51.520;6.764;2022-12-18T13:14:38;102292.94;;;2.55
69785;BMP280;14177;51.520;6.764;2022-12-18T13:17:26;102281.84;;;2.54
69785;BMP280;14177;51.520;6.764;2022-12-18T13:20:08;102279.28;;;2.56
69785;BMP280;14177;51.520;6.764;2022-12-18T13:22:47;102265.56;;;2.54
69785;BMP280;14177;51.520;6.764;2022-12-18T13:25:28;102267.22;;;2.52
69785;BMP280;14177;51.520;6.764;2022-12-18T13:28:10;102265.41;;;2.48
69785;BMP280;14177;51.520;6.764;2022-12-18T13:45:49;102232.81;;;2.44
69785;BMP280;14177;51.520;6.764;2022-12-18T13:48:26;102226.69;;;2.39
69785;BMP280;14177;51.520;6.764;2022-12-18T13:51:08;102225.91;;;2.41
69785;BMP280;14177;51.520;6.764;2022-12-18T13:53:44;102227.50;;;2.37
69785;BMP280;14177;51.520;6.764;2022-12-18T13:56:22;102210.25;;;2.31
69785;BMP280;14177;51.520;6.764;2022-12-18T13:59:13;102217.19;;;2.35
69785;BMP280;14177;51.520;6.764;2022-12-18T14:01:59;102214.53;;;2.32
69785;BMP280;14177;51.520;6.764;2022-12-18T14:04:32;102210.38;;;2.37
69785;BMP280;14177;51.520;6.764;2022-12-18T14:07:13;102199.28;;;2.37
69785;BMP280;14177;51.520;6.764;2022-12-18T14:09:45;102199.97;;;2.31
69785;BMP280;14177;51.520;6.764;2022-12-18T14:12:17;102206.78;;;2.29
69785;BMP280;14177;51.520;6.764;2022-12-18T14:15:05;102188.56;;;2.19
69785;BMP280;14177;51.520;6.764;2022-12-18T14:17:40;102192.78;;;2.15
69785;BMP280;14177;51.520;6.764;2022-12-18T14:20:14;102185.91;;;2.14
69785;BMP280;14177;51.520;6.764;2022-12-18T14:22:46;102191.03;;;2.14
69785;BMP280;14177;51.520;6.764;2022-12-18T14:25:25;102196.16;;;2.14
69785;BMP280;14177;51.520;6.764;2022-12-18T14:28:01;102180.78;;;2.14
69785;BMP280;14177;51.520;6.764;2022-12-18T14:30:32;102178.00;;;2.07
69785;BMP280;14177;51.520;6.764;2022-12-18T14:35:37;102171.97;;;2.05
69785;BMP280;14177;51.520;6.764;2022-12-18T14:40:45;102178.81;;;2.04
69785;BMP280;14177;51.520;6.764;2022-12-18T14:43:12;102184.69;;;2.00
69785;BMP280;14177;51.520;6.764;2022-12-18T14:45:40;102174.44;;;2.02
69785;BMP280;14177;51.520;6.764;2022-12-18T14:48:16;102168.41;;;1.98
69785;BMP280;14177;51.520;6.764;2022-12-18T14:51:06;102170.06;;;1.96
69785;BMP280;14177;51.520;6.764;2022-12-18T14:53:37;102171.63;;;1.91
69785;BMP280;14177;51.520;6.764;2022-12-18T14:56:16;102167.50;;;1.96
69785;BMP280;14177;51.520;6.764;2022-12-18T14:58:45;102166.59;;;1.94
69785;BMP280;14177;51.520;6.764;2022-12-18T15:01:22;102171.56;;;1.88
69785;BMP280;14177;51.520;6.764;2022-12-18T15:03:52;102164.84;;;1.93
69785;BMP280;14177;51.520;6.764;2022-12-18T15:06:26;102172.47;;;1.90
69785;BMP280;14177;51.520;6.764;2022-12-18T15:08:54;102160.41;;;1.86
69785;BMP280;14177;51.520;6.764;2022-12-18T15:17:04;102156.94;;;1.86
69785;BMP280;14177;51.520;6.764;2022-12-18T15:19:38;102156.91;;;1.84
69785;BMP280;14177;51.520;6.764;2022-12-18T15:22:27;102153.56;;;1.87
69785;BMP280;14177;51.520;6.764;2022-12-18T15:24:56;102136.38;;;1.83
69785;BMP280;14177;51.520;6.764;2022-12-18T15:27:31;102135.50;;;1.81
69785;BMP280;14177;51.520;6.764;2022-12-18T15:30:02;102143.22;;;1.84
69785;BMP280;14177;51.520;6.764;2022-12-18T15:32:29;102146.63;;;1.83
69785;BMP280;14177;51.520;6.764;2022-12-18T15:37:37;102139.72;;;1.80
69785;BMP280;14177;51.520;6.764;2022-12-18T15:40:07;102138.75;;;1.75
69785;BMP280;14177;51.520;6.764;2022-12-18T15:42:34;102136.25;;;1.77
69785;BMP280;14177;51.520;6.764;2022-12-18T15:45:20;102134.50;;;1.76
69785;BMP280;14177;51.520;6.764;2022-12-18T15:47:49;102131.03;;;1.74
69785;BMP280;14177;51.520;6.764;2022-12-18T15:50:16;102126.84;;;1.77
69785;BMP280;14177;51.520;6.764;2022-12-18T15:52:45;102141.31;;;1.75
69785;BMP280;14177;51.520;6.764;2022-12-18T15:55:15;102138.66;;;1.72
69785;BMP280;14177;51.520;6.764;2022-12-18T15:58:03;102143.72;;;1.69
69785;BMP280;14177;51.520;6.764;2022-12-18T16:00:30;102133.38;;;1.66
69785;BMP280;14177;51.520;6.764;2022-12-18T16:02:57;102139.25;;;1.62
69785;BMP280;14177;51.520;6.764;2022-12-18T16:05:26;102131.47;;;1.58